Main page
METAR-TAF:

METAR-TAF

Airports :

Turkmenabat Airport

Türkmenabat, Turkmenistan

latitude: 39-05-00N, longitude: 063-36-48E, elevation: 192 m

Current weather observation

The report was made 8 hours and 59 minutes ago, at 05:00 UTC
Wind 8 kt from the North
Temperature 26°C
Humidity 39%
Pressure 1016 hPa
Visibility 10 km or more
no clouds below 1500 m and no cumulonimbus

METAR: UTAV 210500Z 01008KT CAVOK 26/11 Q1016 NOSIG

Time: 18:59 (13:59 UTC)

Forecast

The report was made 9 hours and 29 minutes ago, at 04:30 UTC
Forecast valid from 21 at 06 UTC to 22 at 06 UTC
Wind 16 kt from the North/Northwest
Visibility 10 km or more
no clouds below 1500 m and no cumulonimbus
Temporary
from 21 at 06 UTC to 21 at 13 UTC
Wind 18 kt from the Northeast with gusts up to 28 kt
Visibility: 3000 m
Scattered clouds at a height of 5000 ft
Low drifting dust

TAF: UTAV 210430Z 2106/2206 34016KT CAVOK 530009 TEMPO 2106/2113 04018G28KT 3000 DRDU SCT050

Weather observations and forecasts of more than 4000 airports (METAR and TAF reports).

The available stations are represented by yellow and red dots on the map.

Hover mouse over dot to see the name of the station.

Then click to see weather observations and forecasts.

To change the map : click on the green buttons with a black cross to zoom in, on the green button with a dash to zoom out, or on the green arrows for adjacent maps.


METAR-TAF: